Time;durP1;ratioP1;P1;durP2;ratioP2;P2;SDS_P1;SDS_P2;PMS_P1;PMS_P2;Temp;Humidity;BMP_temperature;BMP_pressure;BME280_temperature;BME280_humidity;BME280_pressure;Samples;Min_cycle;Max_cycle;Signal;HPM_P1;HPM_P2
2023/08/25 00:00:09;;;;;;;11.57;10.38;;;19.80;99.90;;;;;;5136382;27;20047;-78
2023/08/25 00:02:36;;;;;;;12.68;11.15;;;19.80;99.90;;;;;;5135979;27;20475;-79
2023/08/25 00:05:03;;;;;;;11.02;9.90;;;19.80;99.90;;;;;;5136558;27;20050;-78
2023/08/25 00:07:29;;;;;;;12.48;11.15;;;19.70;99.90;;;;;;5139869;27;20054;-79
2023/08/25 00:09:55;;;;;;;10.98;9.82;;;19.70;99.90;;;;;;5119994;27;20504;-79
2023/08/25 00:12:22;;;;;;;13.27;10.65;;;19.80;99.90;;;;;;5117045;27;20095;-79
2023/08/25 00:14:48;;;;;;;15.55;12.85;;;19.70;99.90;;;;;;5135854;27;20167;-79
2023/08/25 00:17:14;;;;;;;12.95;10.82;;;19.70;99.90;;;;;;5135455;27;20043;-80
2023/08/25 00:19:40;;;;;;;14.23;12.73;;;19.70;99.90;;;;;;5135651;27;20043;-79
2023/08/25 00:22:05;;;;;;;15.07;13.60;;;19.70;99.90;;;;;;5135758;27;20035;-79
2023/08/25 00:24:34;;;;;;;14.02;12.55;;;19.70;99.90;;;;;;5135668;27;20088;-79
2023/08/25 00:27:00;;;;;;;15.40;13.93;;;19.60;99.90;;;;;;5135574;27;20475;-80
2023/08/25 00:29:26;;;;;;;16.20;14.70;;;19.70;99.90;;;;;;5135623;27;20463;-80
2023/08/25 00:31:51;;;;;;;12.57;10.80;;;19.60;99.90;;;;;;5135627;27;20499;-79
2023/08/25 00:34:17;;;;;;;17.83;15.88;;;19.60;99.90;;;;;;5135925;27;20054;-76
2023/08/25 00:36:43;;;;;;;18.73;12.05;;;19.60;99.90;;;;;;5136656;27;20512;-76
2023/08/25 00:39:09;;;;;;;12.63;11.27;;;19.70;99.90;;;;;;5135890;27;20476;-77
2023/08/25 00:41:36;;;;;;;14.50;12.00;;;19.70;99.90;;;;;;5135680;27;20399;-77
2023/08/25 00:44:02;;;;;;;17.40;15.30;;;19.80;99.90;;;;;;5136023;27;20046;-77
2023/08/25 00:46:28;;;;;;;17.88;15.77;;;19.80;99.90;;;;;;5136895;27;20065;-78
2023/08/25 00:48:55;;;;;;;15.13;12.95;;;19.90;99.90;;;;;;5138807;27;20171;-79
2023/08/25 00:51:21;;;;;;;16.20;14.60;;;19.90;99.90;;;;;;5138044;27;20054;-78
2023/08/25 00:53:48;;;;;;;15.88;14.18;;;19.90;99.90;;;;;;5137485;27;20044;-78
2023/08/25 00:56:15;;;;;;;14.68;13.18;;;19.90;99.90;;;;;;5136531;27;20051;-79
2023/08/25 00:58:41;;;;;;;17.10;13.63;;;19.80;99.90;;;;;;5135173;27;20524;-79
2023/08/25 01:01:07;;;;;;;17.20;14.32;;;19.80;99.90;;;;;;5135598;27;20035;-79
2023/08/25 01:03:38;;;;;;;17.35;15.57;;;19.80;99.90;;;;;;5135516;27;20047;-78
2023/08/25 01:06:04;;;;;;;17.52;14.07;;;19.80;99.90;;;;;;5117753;27;20054;-78
2023/08/25 01:08:30;;;;;;;15.70;13.48;;;19.80;99.90;;;;;;5135063;27;20099;-79
2023/08/25 01:11:14;;;;;;;15.88;14.32;;;19.80;99.90;;;;;;5135356;27;20054;-79
2023/08/25 01:14:06;;;;;;;14.57;13.27;;;19.90;99.90;;;;;;5117033;27;20047;-79
2023/08/25 01:16:39;;;;;;;16.20;13.82;;;19.90;99.90;;;;;;5135344;27;20051;-78
2023/08/25 01:19:20;;;;;;;17.10;13.52;;;19.90;99.90;;;;;;5134959;27;20070;-79
2023/08/25 01:21:51;;;;;;;14.38;12.70;;;19.90;99.90;;;;;;5101879;27;20051;-78
2023/08/25 01:24:22;;;;;;;12.15;10.90;;;19.90;99.90;;;;;;5135479;27;20058;-78
2023/08/25 01:26:49;;;;;;;15.38;13.75;;;19.90;99.90;;;;;;5134900;27;20042;-79
2023/08/25 01:29:15;;;;;;;16.20;14.57;;;19.90;99.90;;;;;;5134178;27;20333;-78
2023/08/25 01:31:40;;;;;;;15.20;13.57;;;19.90;99.90;;;;;;5134357;27;20058;-78
2023/08/25 01:34:07;;;;;;;17.80;13.95;;;19.90;99.90;;;;;;5134402;27;20503;-78
2023/08/25 01:37:22;;;;;;;12.85;11.55;;;19.80;99.90;;;;;;5134178;27;20095;-78
2023/08/25 01:39:52;;;;;;;14.05;12.13;;;19.80;99.90;;;;;;5128562;27;20074;-78
2023/08/25 01:42:22;;;;;;;13.50;11.85;;;19.70;99.90;;;;;;5116086;27;20126;-78
2023/08/25 01:44:49;;;;;;;16.25;12.93;;;19.70;99.90;;;;;;5134750;27;20046;-78
2023/08/25 01:47:19;;;;;;;16.25;14.45;;;19.60;99.90;;;;;;5134209;27;20137;-77
2023/08/25 01:49:45;;;;;;;18.25;16.33;;;19.60;99.90;;;;;;5115723;27;20091;-78
2023/08/25 01:52:12;;;;;;;15.10;13.45;;;19.50;99.90;;;;;;5098956;27;20046;-78
2023/08/25 01:54:38;;;;;;;17.17;15.48;;;19.50;99.90;;;;;;5133935;27;20058;-78
2023/08/25 01:57:04;;;;;;;17.10;15.25;;;19.50;99.90;;;;;;5134294;27;20130;-79
2023/08/25 01:59:30;;;;;;;18.63;15.60;;;19.50;99.90;;;;;;5134519;27;20051;-78
2023/08/25 02:01:55;;;;;;;18.77;16.77;;;19.40;99.90;;;;;;5116114;27;20451;-78
2023/08/25 02:04:21;;;;;;;20.90;16.55;;;19.40;99.90;;;;;;5133857;27;20066;-78
2023/08/25 02:06:47;;;;;;;16.17;14.13;;;19.40;99.90;;;;;;5133950;27;20051;-78
2023/08/25 02:09:14;;;;;;;19.77;17.65;;;19.40;99.90;;;;;;5134035;27;20418;-78
2023/08/25 02:11:39;;;;;;;20.98;18.63;;;19.40;99.90;;;;;;5134074;27;20147;-78
2023/08/25 02:14:05;;;;;;;21.10;18.98;;;19.30;99.90;;;;;;5133763;27;20051;-78
2023/08/25 02:16:31;;;;;;;23.15;20.63;;;19.30;99.90;;;;;;5133801;27;20050;-78
2023/08/25 02:18:57;;;;;;;21.85;19.35;;;19.30;99.90;;;;;;5133817;27;20566;-78
2023/08/25 02:21:23;;;;;;;17.50;15.68;;;19.30;99.90;;;;;;5133592;27;20104;-79
2023/08/25 02:23:49;;;;;;;22.60;20.20;;;19.30;99.90;;;;;;5133739;27;20043;-78
2023/08/25 02:26:15;;;;;;;22.17;19.90;;;19.30;99.90;;;;;;5133537;28;20083;-78
2023/08/25 02:28:40;;;;;;;20.63;18.23;;;19.30;99.90;;;;;;5134077;28;20480;-79
2023/08/25 02:31:06;;;;;;;23.67;19.15;;;19.30;99.90;;;;;;5133845;28;20035;-78
2023/08/25 02:33:33;;;;;;;23.95;21.23;;;19.20;99.90;;;;;;5133702;28;20048;-78
2023/08/25 02:36:00;;;;;;;22.27;19.88;;;19.30;99.90;;;;;;5133534;28;20054;-78
2023/08/25 02:38:26;;;;;;;23.10;20.67;;;19.20;99.90;;;;;;5133536;28;20082;-78
2023/08/25 02:40:52;;;;;;;23.20;20.70;;;19.20;99.90;;;;;;5101772;27;20075;-78
2023/08/25 02:43:18;;;;;;;22.63;18.70;;;19.20;99.90;;;;;;5119458;27;20035;-78
2023/08/25 02:45:44;;;;;;;20.90;18.15;;;19.20;99.90;;;;;;5138316;27;20074;-78
2023/08/25 02:48:10;;;;;;;25.15;21.63;;;19.10;99.90;;;;;;5137661;27;20476;-79
2023/08/25 02:50:36;;;;;;;23.50;21.05;;;19.10;99.90;;;;;;5119171;27;20043;-78
2023/08/25 02:53:02;;;;;;;27.52;22.75;;;19.10;99.90;;;;;;5137636;27;20046;-78
2023/08/25 02:55:28;;;;;;;24.98;22.27;;;19.10;99.90;;;;;;5118913;27;20066;-78
2023/08/25 02:57:53;;;;;;;26.60;22.10;;;19.10;99.90;;;;;;5119783;27;20042;-78
2023/08/25 03:00:21;;;;;;;23.63;21.20;;;19.10;99.90;;;;;;5137888;27;20401;-78
2023/08/25 03:02:48;;;;;;;23.63;21.05;;;19.10;99.90;;;;;;5137580;27;20084;-78
2023/08/25 03:05:14;;;;;;;21.50;18.48;;;19.00;99.90;;;;;;5137463;27;20070;-78
2023/08/25 03:07:39;;;;;;;25.63;22.23;;;19.10;99.90;;;;;;5119378;27;20452;-79
2023/08/25 03:10:07;;;;;;;23.20;20.77;;;19.00;99.90;;;;;;5138079;27;20046;-78
2023/08/25 03:12:33;;;;;;;23.30;20.52;;;19.10;99.90;;;;;;5136966;27;20616;-78
2023/08/25 03:14:59;;;;;;;24.42;21.73;;;19.00;99.90;;;;;;5136980;27;20055;-78
2023/08/25 03:17:26;;;;;;;24.42;21.08;;;19.00;99.90;;;;;;5137290;27;20460;-79
2023/08/25 03:19:52;;;;;;;28.52;23.52;;;18.90;99.90;;;;;;5137479;27;20070;-78
2023/08/25 03:22:17;;;;;;;25.70;21.00;;;18.90;99.90;;;;;;5118383;27;20447;-78
2023/08/25 03:24:43;;;;;;;28.00;25.13;;;19.00;99.90;;;;;;5137417;27;20078;-79
2023/08/25 03:27:09;;;;;;;27.17;23.70;;;18.90;99.90;;;;;;5136938;27;20505;-78
2023/08/25 03:29:35;;;;;;;30.15;25.65;;;18.90;99.90;;;;;;5136750;27;20047;-78
2023/08/25 03:32:00;;;;;;;26.33;23.60;;;18.90;99.90;;;;;;5137094;27;20047;-78
2023/08/25 03:34:26;;;;;;;27.95;22.90;;;18.90;99.90;;;;;;5118597;27;20057;-78
2023/08/25 03:36:52;;;;;;;22.73;19.70;;;18.90;99.90;;;;;;5118861;27;20134;-78
2023/08/25 03:39:18;;;;;;;27.60;23.65;;;18.90;99.90;;;;;;5136540;27;20039;-78
2023/08/25 03:41:45;;;;;;;24.13;20.63;;;18.90;99.90;;;;;;5137019;27;20039;-78
2023/08/25 03:44:10;;;;;;;23.08;20.45;;;18.90;99.90;;;;;;5136569;27;20062;-78
2023/08/25 03:46:36;;;;;;;28.48;24.40;;;18.90;99.90;;;;;;5136485;27;20035;-78
2023/08/25 03:49:02;;;;;;;26.23;22.88;;;18.90;99.90;;;;;;5137081;27;20126;-78
2023/08/25 03:51:28;;;;;;;29.08;25.98;;;18.90;99.90;;;;;;5135864;27;20039;-78
2023/08/25 03:53:54;;;;;;;26.88;23.35;;;18.90;99.90;;;;;;5136389;27;20046;-78
2023/08/25 03:56:20;;;;;;;29.60;26.30;;;19.00;99.90;;;;;;5118116;27;20046;-77
2023/08/25 03:58:46;;;;;;;31.65;28.05;;;19.00;99.90;;;;;;5136267;27;20039;-78
2023/08/25 04:01:11;;;;;;;26.00;21.88;;;19.10;99.90;;;;;;5117965;27;20042;-77
2023/08/25 04:03:37;;;;;;;36.53;29.70;;;19.20;99.90;;;;;;5136276;27;20103;-77
2023/08/25 04:06:03;;;;;;;26.42;20.92;;;19.10;99.90;;;;;;5117922;27;20043;-77
2023/08/25 04:08:29;;;;;;;30.42;25.77;;;19.20;99.90;;;;;;5136008;27;20528;-77
2023/08/25 04:10:54;;;;;;;30.88;26.50;;;19.20;99.90;;;;;;5117743;27;20047;-78
2023/08/25 04:13:20;;;;;;;35.55;27.77;;;19.30;99.90;;;;;;5117489;27;20059;-78
2023/08/25 04:15:55;;;;;;;27.42;22.67;;;19.30;99.90;;;;;;5135934;27;20070;-77
2023/08/25 04:18:21;;;;;;;33.10;28.00;;;19.30;99.90;;;;;;5136298;27;20050;-76
2023/08/25 04:20:46;;;;;;;37.75;30.25;;;19.30;99.90;;;;;;5117378;27;20118;-77
2023/08/25 04:23:12;;;;;;;26.98;22.73;;;19.30;99.90;;;;;;5117406;27;20043;-78
2023/08/25 04:25:38;;;;;;;34.72;26.60;;;19.40;99.90;;;;;;5135601;27;20046;-77
2023/08/25 04:28:04;;;;;;;37.78;27.27;;;19.40;99.90;;;;;;5135596;27;20043;-77
2023/08/25 04:30:29;;;;;;;36.05;28.77;;;19.40;99.90;;;;;;5135599;27;20043;-78
2023/08/25 04:32:55;;;;;;;31.33;24.02;;;19.40;99.90;;;;;;5136673;27;20043;-77
2023/08/25 04:35:22;;;;;;;36.20;26.90;;;19.40;99.90;;;;;;5117731;27;20051;-77
2023/08/25 04:37:48;;;;;;;25.85;20.13;;;19.40;99.90;;;;;;5117761;27;20047;-78
2023/08/25 04:40:14;;;;;;;31.02;24.52;;;19.40;99.90;;;;;;5136038;27;20051;-77
2023/08/25 04:42:41;;;;;;;26.02;21.80;;;19.50;99.90;;;;;;5099938;27;20138;-78
2023/08/25 04:45:10;;;;;;;32.00;22.77;;;19.50;99.90;;;;;;5117579;27;20043;-78
2023/08/25 04:47:36;;;;;;;30.55;25.50;;;19.50;99.90;;;;;;5135741;27;20047;-77
2023/08/25 04:50:03;;;;;;;25.13;20.40;;;19.60;99.90;;;;;;5136802;27;20100;-77
2023/08/25 04:52:29;;;;;;;36.50;28.05;;;19.60;99.90;;;;;;5118983;27;20043;-79
2023/08/25 04:54:55;;;;;;;32.30;27.90;;;19.60;99.90;;;;;;5137210;27;20051;-78
2023/08/25 04:57:21;;;;;;;37.83;29.88;;;19.60;99.90;;;;;;5135203;27;20043;-78
2023/08/25 04:59:46;;;;;;;32.45;26.40;;;19.60;99.90;;;;;;5117351;27;20091;-77
2023/08/25 05:02:13;;;;;;;31.42;27.10;;;19.70;99.90;;;;;;5135459;27;20460;-78
2023/08/25 05:04:38;;;;;;;36.10;29.50;;;19.70;99.90;;;;;;5134586;27;20062;-78
2023/08/25 05:07:04;;;;;;;37.53;30.75;;;19.70;99.90;;;;;;5099967;27;20035;-78
2023/08/25 05:09:30;;;;;;;37.42;29.23;;;19.70;99.90;;;;;;5135268;27;20529;-78
2023/08/25 05:11:55;;;;;;;38.67;29.08;;;19.70;99.90;;;;;;5135126;27;20516;-78
2023/08/25 05:14:21;;;;;;;33.85;27.27;;;19.80;99.90;;;;;;5135030;27;20122;-79
2023/08/25 05:16:47;;;;;;;33.78;27.00;;;19.80;99.90;;;;;;5116797;27;20043;-79
2023/08/25 05:19:13;;;;;;;42.88;31.92;;;19.80;99.90;;;;;;5134809;27;20082;-79
2023/08/25 05:21:40;;;;;;;38.35;31.30;;;19.80;99.90;;;;;;5116625;27;20049;-79
2023/08/25 05:24:17;;;;;;;34.90;29.73;;;19.80;99.90;;;;;;5135066;27;20043;-78
2023/08/25 05:26:43;;;;;;;42.30;33.50;;;19.80;99.90;;;;;;5134657;27;20043;-79
2023/08/25 05:29:09;;;;;;;32.63;26.67;;;19.80;99.90;;;;;;5099470;27;20039;-79
2023/08/25 05:31:35;;;;;;;43.42;30.85;;;19.90;99.90;;;;;;5134727;27;20096;-79
2023/08/25 05:34:00;;;;;;;42.47;33.35;;;19.80;99.90;;;;;;5134881;27;20051;-79
2023/08/25 05:36:26;;;;;;;44.60;33.65;;;19.80;99.90;;;;;;5134692;27;20042;-79
2023/08/25 05:38:52;;;;;;;41.40;31.27;;;19.90;99.90;;;;;;5134429;27;20364;-80
2023/08/25 05:41:17;;;;;;;44.38;32.72;;;19.80;99.90;;;;;;5134780;27;20397;-79
2023/08/25 05:43:43;;;;;;;46.28;34.05;;;19.90;99.90;;;;;;5134075;27;20126;-83
2023/08/25 05:46:09;;;;;;;40.85;31.23;;;19.90;99.90;;;;;;5134508;27;20039;-82
2023/08/25 05:48:35;;;;;;;45.60;34.75;;;19.90;99.90;;;;;;5134115;27;20043;-82
2023/08/25 05:51:00;;;;;;;39.40;32.00;;;19.90;99.90;;;;;;5134113;27;20098;-85
2023/08/25 05:53:26;;;;;;;40.03;31.73;;;20.00;99.90;;;;;;5099190;27;20047;-84
2023/08/25 05:55:51;;;;;;;44.63;35.55;;;20.00;99.90;;;;;;5098777;27;20051;-83
2023/08/25 05:58:17;;;;;;;46.55;37.20;;;20.00;99.90;;;;;;5115731;27;20492;-84
2023/08/25 06:00:43;;;;;;;42.33;30.88;;;20.00;99.90;;;;;;5134375;27;20078;-84
2023/08/25 06:03:08;;;;;;;42.67;30.92;;;20.00;99.90;;;;;;5133790;27;20423;-83
2023/08/25 06:05:34;;;;;;;42.80;31.75;;;20.00;99.90;;;;;;5115582;27;20051;-83
2023/08/25 06:08:00;;;;;;;44.05;30.63;;;20.10;99.90;;;;;;5134023;27;20054;-83
2023/08/25 06:10:27;;;;;;;44.63;35.15;;;20.10;99.90;;;;;;5116192;27;20130;-84
2023/08/25 06:12:52;;;;;;;42.58;32.30;;;20.20;99.90;;;;;;5134853;27;20051;-85
2023/08/25 06:15:18;;;;;;;51.95;36.38;;;20.30;99.90;;;;;;5115118;27;20036;-84
2023/08/25 06:17:44;;;;;;;49.15;31.23;;;20.30;99.90;;;;;;5133631;27;20043;-85
2023/08/25 06:20:11;;;;;;;35.85;28.30;;;20.30;99.90;;;;;;5133706;27;20441;-84
2023/08/25 06:22:39;;;;;;;44.10;32.78;;;20.40;99.90;;;;;;5133469;27;20569;-84
2023/08/25 06:25:05;;;;;;;42.60;31.83;;;20.50;99.90;;;;;;5133800;27;20049;-85
2023/08/25 06:27:31;;;;;;;38.95;31.23;;;20.50;99.90;;;;;;5134025;28;20054;-85
2023/08/25 06:29:56;;;;;;;40.78;30.27;;;20.60;99.90;;;;;;5133252;28;20051;-85
2023/08/25 06:32:23;;;;;;;48.25;33.97;;;20.70;99.90;;;;;;5115814;28;20042;-83
2023/08/25 06:34:51;;;;;;;35.95;29.73;;;20.70;99.90;;;;;;5133386;28;20047;-83
2023/08/25 06:37:17;;;;;;;42.35;30.77;;;20.80;99.90;;;;;;5133641;28;20464;-83
2023/08/25 06:39:45;;;;;;;36.92;29.60;;;20.80;99.90;;;;;;5133275;28;20045;-82
2023/08/25 06:42:11;;;;;;;42.75;33.13;;;20.80;99.90;;;;;;5133341;28;20135;-82
2023/08/25 06:44:37;;;;;;;37.80;28.67;;;20.90;99.90;;;;;;5133427;28;20043;-83
2023/08/25 06:47:03;;;;;;;39.78;30.05;;;21.10;99.90;;;;;;5133465;28;20047;-83
2023/08/25 06:49:28;;;;;;;37.92;30.80;;;21.30;99.90;;;;;;5133305;28;20069;-83
2023/08/25 06:51:54;;;;;;;45.00;30.83;;;21.50;99.90;;;;;;5134003;28;20090;-83
2023/08/25 06:54:21;;;;;;;41.75;32.20;;;21.60;99.90;;;;;;5133344;28;20051;-83
2023/08/25 06:56:47;;;;;;;42.40;33.05;;;21.60;99.90;;;;;;5133283;28;20453;-83
2023/08/25 06:59:14;;;;;;;42.92;32.80;;;21.60;99.90;;;;;;5115293;28;20043;-83
2023/08/25 07:01:40;;;;;;;40.55;29.00;;;21.50;99.90;;;;;;5133103;28;20054;-83
2023/08/25 07:04:06;;;;;;;44.60;32.05;;;21.50;99.90;;;;;;5133528;28;20380;-83
2023/08/25 07:06:32;;;;;;;40.33;31.92;;;21.50;99.90;;;;;;5133930;28;20091;-82
2023/08/25 07:08:57;;;;;;;45.75;32.30;;;21.50;99.90;;;;;;5115025;28;20042;-83
2023/08/25 07:11:26;;;;;;;42.70;32.00;;;21.50;99.90;;;;;;5114933;28;20098;-83
2023/08/25 07:13:52;;;;;;;42.20;31.85;;;21.60;99.90;;;;;;5133581;28;20047;-81
2023/08/25 07:16:18;;;;;;;38.85;29.88;;;21.60;99.90;;;;;;5133639;28;20360;-81
2023/08/25 07:18:43;;;;;;;41.65;32.42;;;21.70;99.90;;;;;;5133075;28;20047;-81
2023/08/25 07:21:11;;;;;;;43.88;30.90;;;21.70;99.90;;;;;;5114960;28;20165;-82
2023/08/25 07:23:37;;;;;;;46.05;34.72;;;21.80;99.90;;;;;;5133568;28;20107;-80
2023/08/25 07:26:03;;;;;;;42.67;30.90;;;21.80;99.90;;;;;;5133399;27;20082;-81
2023/08/25 07:28:30;;;;;;;40.35;29.08;;;21.90;99.90;;;;;;5118924;27;20057;-81
2023/08/25 07:30:56;;;;;;;42.22;30.00;;;21.90;99.90;;;;;;5137386;27;20046;-81
2023/08/25 07:33:23;;;;;;;46.55;33.05;;;22.00;99.90;;;;;;5136469;27;20506;-82
2023/08/25 07:35:49;;;;;;;47.30;32.50;;;22.00;99.90;;;;;;5136569;27;20047;-82
2023/08/25 07:38:15;;;;;;;42.90;30.05;;;22.20;99.90;;;;;;5136520;27;20133;-82
2023/08/25 07:40:41;;;;;;;48.00;31.10;;;22.40;99.90;;;;;;5136345;27;20047;-81
2023/08/25 07:43:07;;;;;;;39.75;29.20;;;22.50;99.90;;;;;;5118556;27;20097;-81
2023/08/25 07:45:32;;;;;;;43.00;31.48;;;22.50;99.90;;;;;;5136191;27;20126;-82
2023/08/25 07:47:59;;;;;;;38.90;29.55;;;22.60;99.90;;;;;;5136344;27;20043;-81
2023/08/25 07:50:30;;;;;;;47.90;32.53;;;22.50;99.90;;;;;;5136271;27;20122;-81
2023/08/25 07:52:56;;;;;;;45.00;31.42;;;22.40;99.90;;;;;;5117797;27;20396;-83
2023/08/25 07:55:22;;;;;;;51.13;34.53;;;22.30;99.90;;;;;;5136711;27;20096;-81
2023/08/25 07:57:49;;;;;;;52.10;34.25;;;22.20;99.90;;;;;;5136448;27;20058;-81
2023/08/25 08:00:18;;;;;;;52.00;34.75;;;22.10;99.90;;;;;;5136143;27;20047;-81
2023/08/25 08:02:45;;;;;;;49.75;34.53;;;22.10;99.90;;;;;;5136429;27;20146;-80
2023/08/25 08:05:11;;;;;;;45.70;29.95;;;22.10;99.90;;;;;;5136025;27;20486;-81
2023/08/25 08:07:38;;;;;;;47.75;32.67;;;22.20;99.90;;;;;;5135840;27;20071;-80
2023/08/25 08:10:05;;;;;;;44.35;31.92;;;22.20;99.90;;;;;;5117716;27;20073;-80
2023/08/25 08:12:31;;;;;;;41.55;31.02;;;22.20;99.90;;;;;;5135748;27;20066;-81
2023/08/25 08:14:56;;;;;;;50.53;32.78;;;22.30;99.90;;;;;;5117400;27;20046;-81
2023/08/25 08:17:22;;;;;;;44.15;31.83;;;22.30;99.90;;;;;;5136483;27;20472;-80
2023/08/25 08:19:48;;;;;;;50.17;31.35;;;22.30;99.90;;;;;;5135540;27;20488;-79
2023/08/25 08:22:14;;;;;;;46.08;31.90;;;22.30;99.90;;;;;;5135619;27;20035;-81
2023/08/25 08:24:46;;;;;;;48.22;32.10;;;22.50;99.90;;;;;;5135947;27;20055;-81
2023/08/25 08:27:12;;;;;;;43.85;29.45;;;22.90;99.90;;;;;;5136234;27;20399;-81
2023/08/25 08:29:38;;;;;;;51.63;32.28;;;23.60;99.90;;;;;;5135697;27;20050;-80
2023/08/25 08:32:05;;;;;;;46.75;29.73;;;23.80;99.90;;;;;;5135351;27;20051;-81
2023/08/25 08:34:31;;;;;;;39.20;26.17;;;23.60;99.90;;;;;;5135267;27;20085;-81
2023/08/25 08:36:57;;;;;;;37.30;25.77;;;23.60;99.90;;;;;;5135622;27;20079;-81
2023/08/25 08:39:24;;;;;;;40.22;26.10;;;23.70;99.90;;;;;;5117864;27;20054;-75
2023/08/25 08:41:52;;;;;;;40.88;28.45;;;23.90;99.90;;;;;;5116889;27;20420;-83
2023/08/25 08:44:19;;;;;;;44.22;29.58;;;24.10;99.90;;;;;;5135320;27;20047;-83
2023/08/25 08:46:48;;;;;;;39.22;26.35;;;24.10;99.90;;;;;;5135502;27;20096;-82
2023/08/25 08:49:14;;;;;;;41.40;27.65;;;23.90;99.90;;;;;;5118711;27;20078;-82
2023/08/25 08:51:44;;;;;;;39.40;26.92;;;23.70;99.90;;;;;;5144840;27;20055;-83
2023/08/25 08:54:11;;;;;;;37.15;26.25;;;23.60;99.90;;;;;;5141359;27;20061;-82
2023/08/25 08:56:37;;;;;;;42.38;27.83;;;23.60;99.90;;;;;;5139527;27;20468;-82
2023/08/25 08:59:04;;;;;;;37.70;24.77;;;23.50;99.90;;;;;;5120877;27;20054;-82
2023/08/25 09:01:32;;;;;;;36.05;26.25;;;23.50;99.90;;;;;;5141333;27;20043;-82
2023/08/25 09:04:02;;;;;;;37.42;27.50;;;23.50;99.90;;;;;;5142262;27;20047;-81
2023/08/25 09:06:37;;;;;;;39.25;25.48;;;23.50;99.90;;;;;;5147846;27;20075;-81
2023/08/25 09:09:05;;;;;;;32.22;26.65;;;23.40;99.90;;;;;;5143263;27;20040;-81
2023/08/25 09:11:35;;;;;;;38.00;27.40;;;23.30;99.90;;;;;;5120035;27;20078;-82
2023/08/25 09:14:04;;;;;;;43.22;27.80;;;23.20;99.90;;;;;;5135108;27;20047;-82
2023/08/25 09:16:35;;;;;;;37.15;26.40;;;23.20;99.90;;;;;;5083617;27;20057;-82
2023/08/25 09:19:03;;;;;;;39.97;26.30;;;23.00;99.90;;;;;;5134830;27;20053;-82
2023/08/25 09:21:29;;;;;;;44.67;28.25;;;23.00;99.90;;;;;;5134047;27;20521;-82
2023/08/25 09:23:58;;;;;;;38.88;25.55;;;23.00;99.90;;;;;;5116424;27;20046;-82
2023/08/25 09:26:25;;;;;;;37.75;26.95;;;22.90;99.90;;;;;;5134768;27;20042;-82
2023/08/25 09:28:57;;;;;;;31.55;23.90;;;22.90;99.90;;;;;;5134698;27;20058;-81
2023/08/25 09:31:24;;;;;;;38.28;26.45;;;22.90;99.90;;;;;;5134730;27;20506;-82
2023/08/25 09:33:52;;;;;;;33.55;23.48;;;22.90;99.90;;;;;;5134506;27;20096;-82
2023/08/25 09:36:18;;;;;;;27.73;22.42;;;22.90;99.90;;;;;;5134426;27;20117;-81
2023/08/25 09:38:46;;;;;;;34.70;24.10;;;22.90;99.90;;;;;;5116201;27;20172;-82
2023/08/25 09:41:11;;;;;;;33.28;24.05;;;23.00;99.90;;;;;;5134458;27;20115;-82
2023/08/25 09:43:39;;;;;;;30.40;21.75;;;23.00;99.90;;;;;;5116431;27;20106;-82
2023/08/25 09:46:08;;;;;;;33.72;25.25;;;23.10;99.90;;;;;;5134424;27;20051;-82
2023/08/25 09:48:35;;;;;;;31.02;24.48;;;23.40;99.90;;;;;;5134728;27;20127;-82
2023/08/25 09:51:01;;;;;;;34.95;28.13;;;23.50;99.90;;;;;;5134042;27;20451;-82
2023/08/25 09:53:33;;;;;;;36.55;27.27;;;23.60;99.90;;;;;;5134182;27;20039;-83
2023/08/25 09:56:04;;;;;;;44.97;32.10;;;23.70;99.90;;;;;;5134158;27;20463;-81
2023/08/25 09:58:30;;;;;;;39.13;29.35;;;23.60;99.90;;;;;;5133989;27;20112;-83
2023/08/25 10:00:58;;;;;;;41.05;31.15;;;23.40;99.90;;;;;;5134529;27;20047;-81
2023/08/25 10:03:24;;;;;;;38.78;28.25;;;23.20;99.90;;;;;;5116135;27;20508;-82
2023/08/25 10:05:50;;;;;;;41.92;28.27;;;23.10;99.90;;;;;;5133750;27;20047;-81
2023/08/25 10:08:16;;;;;;;44.38;30.42;;;23.10;99.90;;;;;;5133825;27;20039;-81
2023/08/25 10:10:45;;;;;;;37.92;29.20;;;23.00;99.90;;;;;;5134274;27;20128;-80
2023/08/25 10:13:15;;;;;;;38.50;28.90;;;23.00;99.90;;;;;;5133785;27;20063;-81
2023/08/25 10:15:42;;;;;;;41.20;29.63;;;23.00;99.90;;;;;;5134051;27;20054;-81
2023/08/25 10:18:09;;;;;;;42.63;31.58;;;23.00;99.90;;;;;;5134178;27;20050;-81
2023/08/25 10:20:36;;;;;;;40.88;30.23;;;23.00;99.90;;;;;;5115679;28;20043;-82
2023/08/25 10:23:04;;;;;;;41.17;30.83;;;23.00;99.90;;;;;;5133956;27;20083;-82
2023/08/25 10:25:31;;;;;;;48.63;31.63;;;23.00;99.90;;;;;;5133923;27;20039;-82
2023/08/25 10:27:58;;;;;;;42.33;30.83;;;22.90;99.90;;;;;;5133424;28;20448;-82
2023/08/25 10:30:25;;;;;;;43.63;29.42;;;22.90;99.90;;;;;;5133167;28;20419;-81
2023/08/25 10:32:56;;;;;;;36.47;27.63;;;22.80;99.90;;;;;;5133443;28;20050;-81
2023/08/25 10:35:44;;;;;;;41.53;30.45;;;22.80;99.90;;;;;;5115014;28;20512;-82
2023/08/25 10:38:34;;;;;;;40.63;30.52;;;22.80;99.90;;;;;;5133387;28;20085;-81
2023/08/25 10:41:13;;;;;;;43.83;30.00;;;22.80;99.90;;;;;;5120957;28;20130;-82
2023/08/25 10:43:40;;;;;;;42.08;31.20;;;22.80;99.90;;;;;;5133901;28;20059;-81
2023/08/25 10:46:07;;;;;;;40.28;33.22;;;22.70;99.90;;;;;;5133559;28;20054;-81
2023/08/25 10:48:33;;;;;;;42.42;31.10;;;22.60;99.90;;;;;;5133525;28;20410;-82
2023/08/25 10:51:09;;;;;;;44.22;30.58;;;22.60;99.90;;;;;;5133568;28;20070;-82
2023/08/25 10:53:44;;;;;;;43.03;29.55;;;22.60;99.90;;;;;;5133660;28;20065;-81
2023/08/25 10:56:22;;;;;;;39.08;28.92;;;22.50;99.90;;;;;;5133262;28;20082;-82
2023/08/25 10:58:58;;;;;;;44.35;32.08;;;22.60;99.90;;;;;;5133245;28;20047;-82
2023/08/25 11:01:44;;;;;;;42.97;31.73;;;22.50;99.90;;;;;;5134404;27;20104;-82
2023/08/25 11:04:24;;;;;;;42.30;32.47;;;22.40;99.90;;;;;;5117547;27;20413;-82
2023/08/25 11:06:54;;;;;;;39.17;31.13;;;22.30;99.90;;;;;;5119285;27;20130;-82
2023/08/25 11:09:26;;;;;;;41.00;31.00;;;22.30;99.90;;;;;;5137365;27;20073;-82
2023/08/25 11:12:04;;;;;;;41.78;31.38;;;22.30;99.90;;;;;;5137143;27;20055;-82
2023/08/25 11:14:32;;;;;;;39.97;30.45;;;22.20;99.90;;;;;;5136939;27;20050;-82
2023/08/25 11:17:00;;;;;;;41.85;31.55;;;22.20;99.90;;;;;;5136998;27;20047;-81
2023/08/25 11:19:26;;;;;;;46.03;32.22;;;22.20;99.90;;;;;;5137393;27;20047;-82
2023/08/25 11:21:59;;;;;;;41.80;30.95;;;22.20;99.90;;;;;;5136785;27;20467;-82
2023/08/25 11:24:25;;;;;;;50.40;31.88;;;22.20;99.90;;;;;;5118504;27;20095;-83
2023/08/25 11:26:51;;;;;;;46.42;32.05;;;22.10;99.90;;;;;;5136835;27;20109;-82
2023/08/25 11:29:17;;;;;;;45.75;32.25;;;22.00;99.90;;;;;;5118621;27;20047;-83
2023/08/25 11:31:45;;;;;;;44.22;32.33;;;22.00;99.90;;;;;;5136434;27;20383;-83
2023/08/25 11:34:11;;;;;;;48.35;33.65;;;21.90;99.90;;;;;;5136629;27;20063;-83
2023/08/25 11:36:37;;;;;;;46.75;33.67;;;21.90;99.90;;;;;;5136542;27;20083;-83
2023/08/25 11:39:03;;;;;;;42.42;32.85;;;21.90;99.90;;;;;;5136821;27;20051;-82
2023/08/25 11:41:29;;;;;;;50.28;34.60;;;21.90;99.90;;;;;;5136563;27;20039;-83
2023/08/25 11:43:57;;;;;;;39.80;30.40;;;21.80;99.90;;;;;;5101017;27;20073;-84
2023/08/25 11:46:23;;;;;;;40.70;31.70;;;21.80;99.90;;;;;;5136612;27;20070;-83
2023/08/25 11:48:51;;;;;;;47.30;35.33;;;21.80;99.90;;;;;;5136067;27;20459;-83
2023/08/25 11:51:18;;;;;;;47.88;33.15;;;21.80;99.90;;;;;;5136233;27;20047;-85
2023/08/25 11:53:44;;;;;;;46.47;32.90;;;21.80;99.90;;;;;;5118034;27;20129;-82
2023/08/25 11:56:15;;;;;;;41.38;32.80;;;22.00;99.90;;;;;;5136148;27;20043;-83
2023/08/25 11:58:41;;;;;;;44.08;33.10;;;22.20;99.90;;;;;;5136346;27;20043;-82
2023/08/25 12:01:10;;;;;;;44.55;34.45;;;22.30;99.90;;;;;;5136018;27;20042;-84
2023/08/25 12:03:37;;;;;;;47.00;34.28;;;22.40;99.90;;;;;;5136085;27;20048;-81
2023/08/25 12:06:07;;;;;;;46.13;34.40;;;22.40;99.90;;;;;;5117829;27;20122;-82
2023/08/25 12:08:37;;;;;;;42.85;32.67;;;22.40;99.90;;;;;;5136257;27;20035;-84
2023/08/25 12:11:06;;;;;;;42.30;33.55;;;22.30;99.90;;;;;;5135770;27;20540;-83
2023/08/25 12:13:35;;;;;;;42.47;32.53;;;22.20;99.90;;;;;;5134912;27;20496;-83
2023/08/25 12:16:03;;;;;;;49.08;34.92;;;22.00;99.90;;;;;;5135893;27;20529;-83
2023/08/25 12:18:37;;;;;;;43.50;31.88;;;22.00;99.90;;;;;;5136212;27;20087;-82
2023/08/25 12:21:05;;;;;;;39.40;30.88;;;21.80;99.90;;;;;;5136105;27;20420;-82
2023/08/25 12:23:34;;;;;;;46.17;32.85;;;21.70;99.90;;;;;;5135605;27;20514;-83
2023/08/25 12:26:01;;;;;;;41.47;32.22;;;21.50;99.90;;;;;;5136171;27;20047;-82
2023/08/25 12:28:27;;;;;;;55.17;37.30;;;21.40;99.90;;;;;;5135621;27;20058;-79